createdAt,value
2022-12-20T00:01:21.122Z,99836.69
2022-12-20T00:03:51.168Z,99831.41
2022-12-20T00:06:18.017Z,99836.72
2022-12-20T00:08:45.448Z,99831.41
2022-12-20T00:11:12.986Z,99833.22
2022-12-20T00:13:40.411Z,99836.72
2022-12-20T00:16:12.631Z,99829.72
2022-12-20T00:18:40.784Z,99823.59
2022-12-20T00:21:10.388Z,99828.00
2022-12-20T00:23:37.643Z,99833.25
2022-12-20T00:26:11.123Z,99828.00
2022-12-20T00:28:39.051Z,99830.63
2022-12-20T00:31:06.130Z,99825.31
2022-12-20T00:33:33.897Z,99827.94
2022-12-20T00:36:00.509Z,99813.91
2022-12-20T00:38:27.668Z,99807.75
2022-12-20T00:41:06.605Z,99814.81
2022-12-20T00:43:33.892Z,99813.03
2022-12-20T00:46:01.473Z,99809.53
2022-12-20T00:48:29.851Z,99812.16
2022-12-20T00:51:05.034Z,99812.16
2022-12-20T00:53:32.672Z,99812.16
2022-12-20T00:55:59.784Z,99798.97
2022-12-20T00:58:27.088Z,99814.81
2022-12-20T01:00:56.523Z,99824.47
2022-12-20T01:03:25.005Z,99801.66
2022-12-20T01:05:53.210Z,99800.75
2022-12-20T01:08:21.195Z,99803.41
2022-12-20T01:10:48.131Z,99791.13
2022-12-20T01:13:14.638Z,99805.19
2022-12-20T01:15:41.155Z,99798.13
2022-12-20T01:18:07.638Z,99786.75
2022-12-20T01:20:34.208Z,99792.91
2022-12-20T01:23:00.747Z,99791.19
2022-12-20T01:25:27.308Z,99805.28
2022-12-20T01:27:53.889Z,99807.91
2022-12-20T01:30:20.407Z,99778.88
2022-12-20T01:32:46.882Z,99789.47
2022-12-20T01:35:13.403Z,99798.25
2022-12-20T01:37:39.937Z,99815.88
2022-12-20T01:40:07.311Z,99795.63
2022-12-20T01:42:34.084Z,99782.44
2022-12-20T01:45:00.656Z,99782.44
2022-12-20T01:47:32.710Z,99803.56
2022-12-20T01:50:02.319Z,99809.75
2022-12-20T01:52:34.502Z,99786.03
2022-12-20T01:55:20.417Z,99805.38
2022-12-20T01:57:49.160Z,99793.94
2022-12-20T02:00:17.389Z,99786.00
2022-12-20T02:02:47.819Z,99783.38
2022-12-20T02:05:15.461Z,99799.25
2022-12-20T02:07:44.332Z,99781.63
2022-12-20T02:10:12.688Z,99771.06
2022-12-20T02:12:42.779Z,99791.31
2022-12-20T02:15:27.688Z,99791.34
2022-12-20T02:18:20.470Z,99776.34
2022-12-20T02:21:05.672Z,99771.94
2022-12-20T02:24:13.430Z,99775.47
2022-12-20T02:27:17.623Z,99761.38
2022-12-20T02:30:08.963Z,99778.13
2022-12-20T02:33:01.789Z,99767.53
2022-12-20T02:35:32.225Z,99764.03
2022-12-20T02:41:51.762Z,99753.47
2022-12-20T02:44:39.518Z,99771.94
2022-12-20T02:47:10.939Z,99759.63
2022-12-20T02:49:41.317Z,99771.97
2022-12-20T02:52:10.163Z,99779.91
2022-12-20T02:54:37.283Z,99776.41
2022-12-20T02:57:29.645Z,99763.16
2022-12-20T03:00:07.106Z,99745.56
2022-12-20T03:02:54.534Z,99751.72
2022-12-20T03:05:23.875Z,99759.63
2022-12-20T03:07:50.848Z,99755.22
2022-12-20T03:10:18.245Z,99732.34
2022-12-20T03:12:44.751Z,99726.19
2022-12-20T03:15:11.403Z,99730.59
2022-12-20T03:17:37.949Z,99743.78
2022-12-20T03:20:06.359Z,99732.34
2022-12-20T03:22:33.959Z,99739.41
2022-12-20T03:25:01.099Z,99731.47
2022-12-20T03:27:28.827Z,99740.25
2022-12-20T03:29:55.904Z,99735.00
2022-12-20T03:32:22.683Z,99737.63
2022-12-20T03:34:49.191Z,99720.03
2022-12-20T03:37:16.423Z,99732.34
2022-12-20T03:39:43.009Z,99729.72
2022-12-20T03:42:09.891Z,99727.06
2022-12-20T03:44:36.750Z,99738.53
2022-12-20T03:47:03.416Z,99736.75
2022-12-20T03:49:29.926Z,99733.25
2022-12-20T03:51:56.468Z,99727.09
2022-12-20T03:54:23.124Z,99742.91
2022-12-20T03:56:49.639Z,99736.75
2022-12-20T03:59:16.545Z,99729.75
2022-12-20T04:01:43.145Z,99722.69
2022-12-20T04:04:12.491Z,99727.09
2022-12-20T04:06:39.254Z,99707.72
2022-12-20T04:09:05.992Z,99720.94
2022-12-20T04:11:32.610Z,99713.88
2022-12-20T04:13:59.121Z,99716.53
2022-12-20T04:16:28.395Z,99716.53
2022-12-20T04:18:55.101Z,99709.47
2022-12-20T04:21:26.469Z,99727.09
2022-12-20T04:23:53.144Z,99720.94
2022-12-20T04:26:19.753Z,99717.41
2022-12-20T04:28:46.338Z,99716.53
2022-12-20T04:31:15.090Z,99714.78
2022-12-20T04:33:46.112Z,99723.56
2022-12-20T04:36:13.342Z,99716.53
2022-12-20T04:38:39.915Z,99713.88
2022-12-20T04:41:07.019Z,99705.97
2022-12-20T04:43:33.749Z,99725.31
2022-12-20T04:46:00.390Z,99709.50
2022-12-20T04:51:16.093Z,99720.06
2022-12-20T04:53:48.527Z,99734.13
2022-12-20T04:56:29.183Z,99716.50
2022-12-20T04:58:57.503Z,99720.06
2022-12-20T05:01:24.413Z,99720.91
2022-12-20T05:03:50.979Z,99717.41
2022-12-20T05:09:07.890Z,99708.59
2022-12-20T05:11:34.503Z,99705.97
2022-12-20T05:14:01.016Z,99700.66
2022-12-20T05:16:27.616Z,99706.84
2022-12-20T05:18:54.370Z,99705.06
2022-12-20T05:21:39.320Z,99707.72
2022-12-20T05:24:25.314Z,99714.78
2022-12-20T05:26:52.044Z,99709.50
2022-12-20T05:29:18.729Z,99704.19
2022-12-20T05:31:45.384Z,99701.56
2022-12-20T05:34:12.071Z,99705.06
2022-12-20T05:36:38.639Z,99699.78
2022-12-20T05:39:06.138Z,99703.31
2022-12-20T05:41:32.763Z,99698.03
2022-12-20T05:43:59.369Z,99692.75
2022-12-20T05:46:26.151Z,99697.16
2022-12-20T05:48:52.973Z,99698.91
2022-12-20T05:51:19.514Z,99696.28
2022-12-20T05:53:46.163Z,99698.03
2022-12-20T05:56:12.703Z,99691.00
2022-12-20T05:58:40.315Z,99685.69
2022-12-20T06:01:08.376Z,99689.22
2022-12-20T06:03:35.083Z,99689.22
2022-12-20T06:06:01.873Z,99690.09
2022-12-20T06:08:28.516Z,99691.84
2022-12-20T06:10:55.249Z,99681.28
2022-12-20T06:13:21.814Z,99677.78
2022-12-20T06:15:48.560Z,99680.41
2022-12-20T06:18:15.153Z,99669.84
2022-12-20T06:20:41.783Z,99670.75
2022-12-20T06:23:09.746Z,99671.59
2022-12-20T06:25:39.660Z,99682.19
2022-12-20T06:28:07.710Z,99675.13
2022-12-20T06:30:35.015Z,99674.25
2022-12-20T06:33:02.399Z,99685.69
2022-12-20T06:35:29.901Z,99674.25
2022-12-20T06:37:56.851Z,99688.34
2022-12-20T06:40:23.772Z,99690.09
2022-12-20T06:42:50.644Z,99683.06
2022-12-20T06:45:31.747Z,99692.75
2022-12-20T06:48:01.243Z,99696.28
2022-12-20T06:50:28.024Z,99698.03
2022-12-20T06:52:54.699Z,99703.31
2022-12-20T06:55:21.366Z,99698.91
2022-12-20T06:57:47.929Z,99701.56
2022-12-20T07:00:15.139Z,99698.91
2022-12-20T07:02:41.840Z,99698.03
2022-12-20T07:05:08.623Z,99690.97
2022-12-20T07:07:40.197Z,99705.97
2022-12-20T07:10:11.096Z,99701.56
2022-12-20T07:12:41.037Z,99703.31
2022-12-20T07:15:10.733Z,99707.72
2022-12-20T07:17:37.274Z,99704.19
2022-12-20T07:20:09.115Z,99699.78
2022-12-20T07:22:39.430Z,99683.94
2022-12-20T07:25:06.178Z,99676.91
2022-12-20T07:27:32.696Z,99679.53
2022-12-20T07:29:59.244Z,99674.25
2022-12-20T07:32:25.876Z,99675.13
2022-12-20T07:34:52.652Z,99666.34
2022-12-20T07:37:19.562Z,99667.22
2022-12-20T07:39:46.057Z,99670.75
2022-12-20T07:42:12.638Z,99668.06
2022-12-20T07:44:39.189Z,99670.72
2022-12-20T07:47:06.041Z,99678.66
2022-12-20T07:49:32.623Z,99674.25
2022-12-20T07:52:02.616Z,99665.44
2022-12-20T07:54:33.531Z,99657.50
2022-12-20T07:57:07.135Z,99661.06
2022-12-20T07:59:39.832Z,99668.97
2022-12-20T08:02:13.556Z,99668.97
2022-12-20T08:04:40.968Z,99682.19
2022-12-20T08:07:09.523Z,99682.19
2022-12-20T08:09:39.848Z,99678.63
2022-12-20T08:12:10.545Z,99694.50
2022-12-20T08:14:38.009Z,99682.19
2022-12-20T08:17:04.680Z,99682.19
2022-12-20T08:19:32.683Z,99672.50
2022-12-20T08:21:59.696Z,99688.34
2022-12-20T08:24:26.302Z,99690.13
2022-12-20T08:26:52.943Z,99680.41
2022-12-20T08:29:19.455Z,99688.34
2022-12-20T08:31:49.987Z,99682.19
2022-12-20T08:34:18.259Z,99702.44
2022-12-20T08:36:45.074Z,99687.47
2022-12-20T08:39:11.767Z,99682.19
2022-12-20T08:41:38.569Z,99686.59
2022-12-20T08:44:06.201Z,99686.59
2022-12-20T08:46:33.120Z,99683.94
2022-12-20T08:48:59.691Z,99694.50
2022-12-20T08:51:26.284Z,99694.53
2022-12-20T08:53:53.073Z,99692.72
2022-12-20T08:56:20.229Z,99686.56
2022-12-20T08:58:47.410Z,99695.34
2022-12-20T09:01:16.608Z,99699.72
2022-12-20T09:03:44.017Z,99696.09
2022-12-20T09:06:13.813Z,99694.22
2022-12-20T09:08:40.702Z,99696.81
2022-12-20T09:11:13.572Z,99706.53
2022-12-20T09:13:44.245Z,99699.59
2022-12-20T09:16:13.118Z,99703.16
2022-12-20T09:18:39.821Z,99701.47
2022-12-20T09:21:07.599Z,99697.94
2022-12-20T09:23:35.294Z,99709.44
2022-12-20T09:26:04.108Z,99702.41
2022-12-20T09:28:31.607Z,99690.91
2022-12-20T09:31:00.471Z,99696.25
2022-12-20T09:33:28.780Z,99694.47
2022-12-20T09:35:55.503Z,99694.47
2022-12-20T09:38:22.119Z,99708.56
2022-12-20T09:40:53.105Z,99697.94
2022-12-20T09:43:21.529Z,99695.25
2022-12-20T09:45:52.825Z,99691.63
2022-12-20T09:48:24.198Z,99683.63
2022-12-20T09:51:29.184Z,99690.69
2022-12-20T09:53:55.621Z,99703.97
2022-12-20T09:56:35.127Z,99697.84
2022-12-20T09:59:06.077Z,99702.25
2022-12-20T10:01:39.540Z,99700.50
2022-12-20T10:04:13.640Z,99701.41
2022-12-20T10:07:10.746Z,99694.41
2022-12-20T10:09:37.201Z,99695.28
2022-12-20T10:12:21.217Z,99712.03
2022-12-20T10:15:18.208Z,99699.72
2022-12-20T10:17:53.886Z,99693.56
2022-12-20T10:20:23.263Z,99688.28
2022-12-20T10:23:07.481Z,99683.00
2022-12-20T10:25:35.129Z,99679.50
2022-12-20T10:28:12.989Z,99674.19
2022-12-20T10:30:39.565Z,99673.34
2022-12-20T10:33:06.048Z,99670.69
2022-12-20T10:35:40.544Z,99682.16
2022-12-20T10:38:14.421Z,99678.63
2022-12-20T10:41:20.693Z,99676.00
2022-12-20T10:43:49.741Z,99670.69
2022-12-20T10:46:19.607Z,99670.72
2022-12-20T10:48:48.261Z,99670.72
2022-12-20T10:51:21.597Z,99654.88
2022-12-20T10:53:55.959Z,99659.28
2022-12-20T10:56:31.563Z,99658.38
2022-12-20T10:59:02.780Z,99661.91
2022-12-20T11:01:33.850Z,99643.44
2022-12-20T11:04:05.487Z,99641.66
2022-12-20T11:09:36.731Z,99631.97
2022-12-20T11:12:15.678Z,99621.38
2022-12-20T11:14:46.313Z,99611.72
2022-12-20T11:17:51.565Z,99600.25
2022-12-20T11:20:27.010Z,99597.63
2022-12-20T11:23:18.298Z,99594.97
2022-12-20T11:25:50.618Z,99585.28
2022-12-20T11:28:42.103Z,99593.22
2022-12-20T11:31:50.436Z,99594.06
2022-12-20T11:34:36.932Z,99594.97
2022-12-20T11:37:24.130Z,99587.91
2022-12-20T11:40:06.432Z,99572.03
2022-12-20T11:42:55.897Z,99563.25
2022-12-20T11:45:37.384Z,99550.00
2022-12-20T11:48:42.621Z,99555.25
2022-12-20T11:51:13.556Z,99556.13
2022-12-20T11:53:54.732Z,99558.75
2022-12-20T11:56:28.054Z,99559.66
2022-12-20T11:59:04.286Z,99557.91
2022-12-20T12:01:40.908Z,99557.03
2022-12-20T12:04:16.979Z,99561.44
2022-12-20T12:06:48.605Z,99550.00
2022-12-20T12:09:25.630Z,99557.06
2022-12-20T12:12:09.670Z,99553.56
2022-12-20T12:14:51.441Z,99557.06
2022-12-20T12:17:47.177Z,99535.97
2022-12-20T12:20:32.204Z,99547.44
2022-12-20T12:23:12.598Z,99527.16
2022-12-20T12:25:39.096Z,99520.13
2022-12-20T12:28:05.787Z,99509.53
2022-12-20T12:30:41.208Z,99520.97
2022-12-20T12:33:23.990Z,99507.78
2022-12-20T12:36:32.705Z,99508.66
2022-12-20T12:39:17.670Z,99498.09
2022-12-20T12:42:08.767Z,99493.72
2022-12-20T12:44:41.260Z,99497.22
2022-12-20T12:47:23.692Z,99499.00
2022-12-20T12:49:53.220Z,99489.31
2022-12-20T12:52:42.263Z,99485.78
2022-12-20T12:55:45.777Z,99488.44
2022-12-20T12:58:24.398Z,99480.50
2022-12-20T13:00:56.595Z,99478.75
2022-12-20T13:04:01.812Z,99485.81
2022-12-20T13:06:28.409Z,99483.13
2022-12-20T13:09:00.801Z,99479.66
2022-12-20T13:11:36.663Z,99479.63
2022-12-20T13:14:31.961Z,99480.50
2022-12-20T13:17:13.760Z,99478.75
2022-12-20T13:19:51.806Z,99483.16
2022-12-20T13:22:25.513Z,99470.81
2022-12-20T13:25:04.414Z,99461.09
2022-12-20T13:27:39.308Z,99462.84
2022-12-20T13:30:14.785Z,99456.72
2022-12-20T13:32:47.075Z,99453.19
2022-12-20T13:35:25.987Z,99447.91
2022-12-20T13:38:07.479Z,99447.91
2022-12-20T13:40:50.272Z,99451.44
2022-12-20T13:43:19.667Z,99451.44
2022-12-20T13:45:49.605Z,99450.56
2022-12-20T13:48:19.775Z,99451.44
2022-12-20T13:50:52.381Z,99435.59
2022-12-20T13:53:25.319Z,99434.72
2022-12-20T13:55:51.835Z,99423.28
2022-12-20T13:58:23.941Z,99434.72
2022-12-20T14:00:52.849Z,99423.28
2022-12-20T14:03:29.240Z,99423.28
2022-12-20T14:05:59.545Z,99423.28
2022-12-20T14:08:31.386Z,99425.03
2022-12-20T14:11:16.081Z,99424.16
2022-12-20T14:13:42.763Z,99428.56
2022-12-20T14:16:17.934Z,99434.72
2022-12-20T14:19:00.283Z,99437.38
2022-12-20T14:21:27.894Z,99420.63
2022-12-20T14:23:57.528Z,99420.66
2022-12-20T14:26:48.094Z,99415.38
2022-12-20T14:29:19.668Z,99407.47
2022-12-20T14:31:48.544Z,99398.63
2022-12-20T14:34:29.446Z,99403.03
2022-12-20T14:37:25.342Z,99403.06
2022-12-20T14:39:59.006Z,99398.63
2022-12-20T14:42:29.784Z,99402.16
2022-12-20T14:45:06.875Z,99398.66
2022-12-20T14:47:33.601Z,99388.09
2022-12-20T14:50:02.576Z,99381.94
2022-12-20T14:52:32.173Z,99373.13
2022-12-20T14:55:10.020Z,99380.16
2022-12-20T14:57:37.024Z,99401.28
2022-12-20T15:00:12.142Z,99401.31
2022-12-20T15:02:56.978Z,99385.47
2022-12-20T15:05:36.051Z,99391.63
2022-12-20T15:08:28.515Z,99392.50
2022-12-20T15:11:10.462Z,99392.50
2022-12-20T15:13:40.095Z,99392.50
2022-12-20T15:16:20.017Z,99392.50
2022-12-20T15:18:58.441Z,99403.09
2022-12-20T15:21:37.368Z,99403.97
2022-12-20T15:24:09.671Z,99405.72
2022-12-20T15:26:37.423Z,99397.81
2022-12-20T15:29:04.700Z,99399.56
2022-12-20T15:31:34.960Z,99399.56
2022-12-20T15:34:10.369Z,99396.91
2022-12-20T15:36:38.406Z,99399.56
2022-12-20T15:39:13.507Z,99388.97
2022-12-20T15:41:43.706Z,99401.28
2022-12-20T15:44:17.374Z,99385.44
2022-12-20T15:46:44.594Z,99387.22
2022-12-20T15:49:19.667Z,99396.03
2022-12-20T15:51:48.113Z,99387.22
2022-12-20T15:54:32.733Z,99400.44
2022-12-20T15:57:03.176Z,99403.06
2022-12-20T16:02:22.520Z,99395.16
2022-12-20T16:04:49.208Z,99382.81
2022-12-20T16:07:16.815Z,99385.47
2022-12-20T16:09:43.947Z,99381.06
2022-12-20T16:12:18.467Z,99378.44
2022-12-20T16:14:45.050Z,99383.72
2022-12-20T16:17:15.498Z,99377.56
2022-12-20T16:19:42.892Z,99392.50
2022-12-20T16:22:16.691Z,99403.94
2022-12-20T16:24:43.888Z,99414.53
2022-12-20T16:27:10.516Z,99408.38
2022-12-20T16:29:37.050Z,99398.69
2022-12-20T16:32:08.064Z,99387.25
2022-12-20T16:34:34.666Z,99387.22
2022-12-20T16:37:01.137Z,99385.50
2022-12-20T16:39:27.684Z,99379.31
2022-12-20T16:41:54.640Z,99374.94
2022-12-20T16:44:21.100Z,99381.09
2022-12-20T16:46:47.653Z,99375.81
2022-12-20T16:49:20.103Z,99377.56
2022-12-20T16:51:48.672Z,99386.38
2022-12-20T16:54:19.694Z,99375.78
2022-12-20T16:56:52.089Z,99373.16
2022-12-20T16:59:21.329Z,99367.88
2022-12-20T17:01:51.005Z,99371.44
2022-12-20T17:04:19.200Z,99382.00
2022-12-20T17:06:47.626Z,99381.09
2022-12-20T17:09:16.243Z,99379.34
2022-12-20T17:11:43.454Z,99366.13
2022-12-20T17:14:13.055Z,99366.13
2022-12-20T17:16:40.689Z,99361.72
2022-12-20T17:19:07.523Z,99360.84
2022-12-20T17:24:30.392Z,99371.41
2022-12-20T17:26:57.080Z,99361.72
2022-12-20T17:29:23.627Z,99366.13
2022-12-20T17:31:50.259Z,99367.00
2022-12-20T17:34:21.916Z,99371.44
2022-12-20T17:36:50.697Z,99369.69
2022-12-20T17:39:17.667Z,99371.41
2022-12-20T17:41:45.012Z,99351.16
2022-12-20T17:44:21.271Z,99347.66
2022-12-20T17:46:48.347Z,99342.38
2022-12-20T17:49:14.950Z,99333.53
2022-12-20T17:51:41.567Z,99343.28
2022-12-20T17:54:18.296Z,99360.88
2022-12-20T17:56:45.171Z,99347.69
2022-12-20T17:59:13.267Z,99338.84
2022-12-20T18:01:41.019Z,99337.09
2022-12-20T18:04:10.609Z,99329.19
2022-12-20T18:06:39.074Z,99335.34
2022-12-20T18:09:10.341Z,99324.78
2022-12-20T18:11:36.821Z,99331.84
2022-12-20T18:14:03.636Z,99338.00
2022-12-20T18:16:32.236Z,99319.53
2022-12-20T18:18:58.808Z,99305.44
2022-12-20T18:21:26.592Z,99302.75
2022-12-20T18:23:54.576Z,99302.75
2022-12-20T18:26:30.628Z,99289.56
2022-12-20T18:28:59.726Z,99290.41
2022-12-20T18:31:28.143Z,99290.44
2022-12-20T18:33:58.352Z,99289.56
2022-12-20T18:36:30.435Z,99298.38
2022-12-20T18:38:58.908Z,99312.44
2022-12-20T18:41:28.193Z,99314.22
2022-12-20T18:43:58.597Z,99315.97
2022-12-20T18:46:25.521Z,99312.44
2022-12-20T18:48:53.093Z,99302.78
2022-12-20T18:51:22.411Z,99296.59
2022-12-20T18:53:50.512Z,99294.84
2022-12-20T18:56:24.915Z,99314.22
2022-12-20T18:58:52.158Z,99317.69
2022-12-20T19:01:22.281Z,99307.16
2022-12-20T19:03:50.698Z,99312.44
2022-12-20T19:06:18.536Z,99301.00
2022-12-20T19:08:45.344Z,99307.16
2022-12-20T19:11:14.903Z,99314.19
2022-12-20T19:13:41.899Z,99305.38
2022-12-20T19:16:10.978Z,99293.94
2022-12-20T19:18:37.676Z,99291.31
2022-12-20T19:21:09.420Z,99287.75
2022-12-20T19:23:37.481Z,99286.00
2022-12-20T19:26:06.891Z,99280.69
2022-12-20T19:28:34.294Z,99271.03
2022-12-20T19:31:19.184Z,99269.25
2022-12-20T19:33:48.187Z,99277.22
2022-12-20T19:36:25.033Z,99275.44
2022-12-20T19:38:55.761Z,99279.88
2022-12-20T19:41:23.857Z,99274.56
2022-12-20T19:43:51.730Z,99260.47
2022-12-20T19:46:28.137Z,99252.56
2022-12-20T19:48:56.433Z,99247.28
2022-12-20T19:51:23.477Z,99248.13
2022-12-20T19:53:51.712Z,99248.13
2022-12-20T19:56:20.919Z,99254.31
2022-12-20T19:58:47.944Z,99259.63
2022-12-20T20:01:15.255Z,99258.72
2022-12-20T20:03:41.794Z,99273.69
2022-12-20T20:06:08.926Z,99255.19
2022-12-20T20:08:35.723Z,99258.72
2022-12-20T20:11:09.500Z,99251.66
2022-12-20T20:13:37.152Z,99244.63
2022-12-20T20:16:04.231Z,99252.53
2022-12-20T20:18:36.617Z,99256.91
2022-12-20T20:21:12.347Z,99278.94
2022-12-20T20:23:39.363Z,99277.22
2022-12-20T20:26:07.662Z,99276.31
2022-12-20T20:28:40.288Z,99266.66
2022-12-20T20:31:11.997Z,99264.88
2022-12-20T20:33:38.735Z,99260.47
2022-12-20T20:36:06.001Z,99254.28
2022-12-20T20:38:34.193Z,99264.00
2022-12-20T20:41:00.780Z,99262.25
2022-12-20T20:43:28.322Z,99269.31
2022-12-20T20:45:54.900Z,99274.59
2022-12-20T20:48:21.838Z,99259.59
2022-12-20T20:50:48.329Z,99242.00
2022-12-20T20:53:14.804Z,99243.78
2022-12-20T20:55:41.654Z,99241.13
2022-12-20T20:58:08.182Z,99227.03
2022-12-20T21:00:35.033Z,99230.56
2022-12-20T21:03:01.759Z,99225.28
2022-12-20T21:08:18.200Z,99233.22
2022-12-20T21:10:44.819Z,99244.66
2022-12-20T21:13:12.175Z,99248.19
2022-12-20T21:15:40.830Z,99241.09
2022-12-20T21:18:07.328Z,99230.56
2022-12-20T21:20:34.059Z,99236.72
2022-12-20T21:23:01.507Z,99237.66
2022-12-20T21:25:28.379Z,99221.78
2022-12-20T21:27:56.721Z,99231.44
2022-12-20T21:30:23.810Z,99237.63
2022-12-20T21:32:50.818Z,99235.88
2022-12-20T21:35:17.274Z,99242.03
2022-12-20T21:37:43.871Z,99250.84
2022-12-20T21:40:10.872Z,99248.16
2022-12-20T21:42:37.709Z,99236.75
2022-12-20T21:45:04.820Z,99239.38
2022-12-20T21:47:31.445Z,99260.47
2022-12-20T21:49:57.899Z,99249.91
2022-12-20T21:52:24.460Z,99243.75
2022-12-20T21:54:51.008Z,99231.41
2022-12-20T21:57:17.480Z,99233.16
2022-12-20T21:59:43.965Z,99237.56
2022-12-20T22:02:12.379Z,99233.19
2022-12-20T22:04:39.286Z,99234.91
2022-12-20T22:07:05.922Z,99240.22
2022-12-20T22:09:32.434Z,99240.22
2022-12-20T22:11:58.920Z,99235.00
2022-12-20T22:14:26.007Z,99236.75
2022-12-20T22:16:54.732Z,99240.28
2022-12-20T22:19:21.307Z,99235.84
2022-12-20T22:21:53.767Z,99241.13
2022-12-20T22:24:24.122Z,99237.56
2022-12-20T22:26:50.722Z,99232.31
2022-12-20T22:29:17.226Z,99234.06
2022-12-20T22:31:43.999Z,99213.88
2022-12-20T22:34:10.560Z,99217.38
2022-12-20T22:36:37.214Z,99203.31
2022-12-20T22:39:04.063Z,99184.78
2022-12-20T22:41:34.655Z,99173.38
2022-12-20T22:44:01.894Z,99183.94
2022-12-20T22:46:29.617Z,99198.09
2022-12-20T22:48:57.015Z,99195.38
2022-12-20T22:51:27.094Z,99195.34
2022-12-20T22:53:53.847Z,99193.56
2022-12-20T22:56:21.725Z,99186.47
2022-12-20T22:58:49.534Z,99194.50
2022-12-20T23:01:19.679Z,99200.63
2022-12-20T23:03:46.752Z,99212.94
2022-12-20T23:06:14.451Z,99198.03
2022-12-20T23:08:41.005Z,99196.28
2022-12-20T23:11:40.945Z,99207.72
2022-12-20T23:14:30.490Z,99204.19
2022-12-20T23:16:57.296Z,99193.63
2022-12-20T23:19:23.728Z,99171.56
2022-12-20T23:22:08.709Z,99178.63
2022-12-20T23:24:35.236Z,99196.25
2022-12-20T23:27:02.313Z,99186.56
2022-12-20T23:29:29.965Z,99197.13
2022-12-20T23:31:56.746Z,99176.88
2022-12-20T23:34:23.396Z,99168.97
2022-12-20T23:36:49.881Z,99166.34
2022-12-20T23:39:17.285Z,99172.50
2022-12-20T23:41:43.703Z,99164.56
2022-12-20T23:44:10.179Z,99161.91
2022-12-20T23:46:36.648Z,99149.59
2022-12-20T23:49:03.110Z,99145.19
2022-12-20T23:51:29.725Z,99134.63
2022-12-20T23:53:56.207Z,99141.66
2022-12-20T23:56:23.393Z,99145.22
2022-12-20T23:58:53.232Z,99155.72
